createdAt,value
2018-05-14T00:00:39.434Z,83.98
2018-05-14T00:03:43.494Z,84.24
2018-05-14T00:06:46.751Z,83.96
2018-05-14T00:09:50.769Z,83.82
2018-05-14T00:12:54.261Z,83.99
2018-05-14T00:15:58.291Z,84.43
2018-05-14T00:19:01.537Z,84.68
2018-05-14T00:22:04.789Z,83.99
2018-05-14T00:25:08.073Z,83.75
2018-05-14T00:28:12.195Z,83.68
2018-05-14T00:31:15.461Z,84.21
2018-05-14T00:34:18.714Z,83.63
2018-05-14T00:37:21.966Z,84.22
2018-05-14T00:40:25.993Z,84.52
2018-05-14T00:43:30.030Z,84.22
2018-05-14T00:46:33.315Z,84.24
2018-05-14T00:49:37.075Z,85.13
2018-05-14T00:52:40.346Z,85.32
2018-05-14T00:55:44.365Z,85.61
2018-05-14T00:58:47.631Z,84.06
2018-05-14T01:01:51.659Z,83.59
2018-05-14T01:04:54.952Z,84.18
2018-05-14T01:07:58.230Z,83.78
2018-05-14T01:11:02.257Z,83.35
2018-05-14T01:14:05.515Z,84.32
2018-05-14T01:17:08.774Z,83.64
2018-05-14T01:20:12.022Z,84.04
2018-05-14T01:23:15.357Z,83.92
2018-05-14T01:26:18.626Z,84.13
2018-05-14T01:29:22.649Z,84.03
2018-05-14T01:32:26.707Z,83.94
2018-05-14T01:35:30.117Z,85.04
2018-05-14T01:38:33.382Z,84.22
2018-05-14T01:41:36.649Z,84.13
2018-05-14T01:44:39.916Z,84.25
2018-05-14T01:47:43.175Z,85.37
2018-05-14T01:50:48.221Z,86.28
2018-05-14T01:53:51.509Z,85.89
2018-05-14T01:56:54.774Z,84.96
2018-05-14T01:59:58.790Z,85.44
2018-05-14T02:03:02.843Z,84.76
2018-05-14T02:06:06.102Z,84.50
2018-05-14T02:09:09.362Z,84.46
2018-05-14T02:12:12.634Z,85.21
2018-05-14T02:15:15.885Z,84.93
2018-05-14T02:18:19.147Z,84.84
2018-05-14T02:21:23.187Z,85.33
2018-05-14T02:24:26.444Z,84.85
2018-05-14T02:27:29.703Z,85.31
2018-05-14T02:30:33.804Z,85.76
2018-05-14T02:33:37.246Z,86.86
2018-05-14T02:36:40.507Z,87.34
2018-05-14T02:39:43.763Z,87.28
2018-05-14T02:42:47.081Z,87.18
2018-05-14T02:45:50.377Z,86.10
2018-05-14T02:48:53.634Z,85.32
2018-05-14T02:51:56.926Z,85.82
2018-05-14T02:55:00.195Z,85.69
2018-05-14T02:58:04.287Z,84.73
2018-05-14T03:01:07.561Z,84.49
2018-05-14T03:04:10.830Z,84.37
2018-05-14T03:07:14.098Z,84.92
2018-05-14T03:10:17.415Z,84.95
2018-05-14T03:13:21.477Z,84.87
2018-05-14T03:16:24.770Z,85.08
2018-05-14T03:19:28.153Z,85.07
2018-05-14T03:22:31.433Z,85.04
2018-05-14T03:25:34.722Z,85.30
2018-05-14T03:28:38.847Z,85.46
2018-05-14T03:31:42.882Z,85.33
2018-05-14T03:34:46.145Z,85.01
2018-05-14T03:37:49.419Z,84.93
2018-05-14T03:40:52.674Z,84.69
2018-05-14T03:43:56.799Z,84.13
2018-05-14T03:47:00.078Z,84.56
2018-05-14T03:50:04.122Z,84.72
2018-05-14T03:53:07.402Z,84.57
2018-05-14T03:56:11.426Z,84.67
2018-05-14T03:59:32.458Z,84.47
2018-05-14T04:02:53.498Z,84.32
2018-05-14T04:06:14.495Z,84.49
2018-05-14T04:09:17.782Z,84.23
2018-05-14T04:12:21.071Z,84.68
2018-05-14T04:15:25.094Z,85.13
2018-05-14T04:18:29.132Z,84.37
2018-05-14T04:21:32.456Z,84.60
2018-05-14T04:24:35.725Z,84.00
2018-05-14T04:27:39.006Z,84.55
2018-05-14T04:30:43.037Z,83.93
2018-05-14T04:33:46.303Z,83.94
2018-05-14T04:36:50.354Z,84.50
2018-05-14T04:39:53.683Z,84.62
2018-05-14T04:42:56.958Z,84.15
2018-05-14T04:46:00.255Z,83.33
2018-05-14T04:49:04.316Z,83.97
2018-05-14T04:52:07.808Z,83.87
2018-05-14T04:55:11.221Z,84.62
2018-05-14T04:58:14.541Z,84.11
2018-05-14T05:01:17.942Z,84.29
2018-05-14T05:04:21.605Z,84.42
2018-05-14T05:07:25.651Z,84.30
2018-05-14T05:10:29.013Z,83.86
2018-05-14T05:13:32.238Z,84.59
2018-05-14T05:16:35.531Z,84.31
2018-05-14T05:19:39.566Z,84.13
2018-05-14T05:22:42.954Z,83.53
2018-05-14T05:25:46.145Z,83.60
2018-05-14T05:28:49.427Z,82.51
2018-05-14T05:31:52.702Z,82.53
2018-05-14T05:34:56.738Z,82.84
2018-05-14T05:38:00.062Z,82.90
2018-05-14T05:41:04.069Z,82.59
2018-05-14T05:44:07.387Z,82.54
2018-05-14T05:47:10.658Z,82.53
2018-05-14T05:50:14.701Z,81.63
2018-05-14T05:53:17.966Z,81.36
2018-05-14T05:56:21.227Z,82.23
2018-05-14T05:59:24.491Z,81.87
2018-05-14T06:02:27.827Z,81.22
2018-05-14T06:05:31.918Z,81.32
2018-05-14T06:08:35.210Z,80.69
2018-05-14T06:11:38.526Z,80.65
2018-05-14T06:14:41.791Z,81.70
2018-05-14T06:17:45.815Z,81.63
2018-05-14T06:20:49.857Z,81.25
2018-05-14T06:23:53.251Z,80.85
2018-05-14T06:26:56.568Z,81.29
2018-05-14T06:29:59.836Z,80.79
2018-05-14T06:33:03.097Z,80.61
2018-05-14T06:36:07.130Z,80.02
2018-05-14T06:39:10.402Z,80.94
2018-05-14T06:42:15.162Z,82.56
2018-05-14T06:45:18.423Z,82.92
2018-05-14T06:48:21.705Z,80.91
2018-05-14T06:51:24.992Z,80.44
2018-05-14T06:54:29.943Z,79.50
2018-05-14T06:57:33.198Z,79.90
2018-05-14T07:00:37.990Z,79.88
2018-05-14T07:03:41.267Z,78.76
2018-05-14T07:06:45.298Z,79.02
2018-05-14T07:09:48.573Z,77.13
2018-05-14T07:12:52.618Z,76.88
2018-05-14T07:15:55.888Z,75.80
2018-05-14T07:19:00.538Z,75.21
2018-05-14T07:22:04.661Z,76.59
2018-05-14T07:25:08.682Z,72.85
2018-05-14T07:28:12.733Z,71.01
2018-05-14T07:31:16.137Z,73.99
2018-05-14T07:34:19.437Z,73.23
2018-05-14T07:37:22.774Z,74.23
2018-05-14T07:40:26.118Z,73.16
2018-05-14T07:43:31.100Z,70.08
2018-05-14T07:46:34.390Z,67.43
2018-05-14T07:49:37.720Z,67.48
2018-05-14T07:52:41.846Z,66.59
2018-05-14T07:55:45.097Z,66.64
2018-05-14T07:58:48.357Z,65.96
2018-05-14T08:01:51.627Z,70.63
2018-05-14T08:04:55.755Z,69.27
2018-05-14T08:07:59.778Z,68.69
2018-05-14T08:11:03.810Z,69.75
2018-05-14T08:14:07.957Z,69.57
2018-05-14T08:17:11.226Z,71.46
2018-05-14T08:20:14.954Z,68.52
2018-05-14T08:23:18.987Z,68.85
2018-05-14T08:26:22.263Z,67.15
2018-05-14T08:29:25.591Z,64.14
2018-05-14T08:32:28.889Z,67.22
2018-05-14T08:35:33.073Z,65.06
2018-05-14T08:38:36.338Z,64.95
2018-05-14T08:41:40.585Z,65.21
2018-05-14T08:44:43.856Z,66.03
2018-05-14T08:47:48.087Z,66.23
2018-05-14T08:50:51.381Z,66.60
2018-05-14T08:53:55.410Z,67.04
2018-05-14T08:56:59.446Z,64.24
2018-05-14T09:00:02.728Z,65.86
2018-05-14T09:03:05.981Z,65.63
2018-05-14T09:06:09.245Z,65.31
2018-05-14T09:09:13.324Z,66.40
2018-05-14T09:12:16.630Z,63.41
2018-05-14T09:15:19.897Z,59.13
2018-05-14T09:18:23.203Z,58.90
2018-05-14T09:21:26.413Z,60.40
2018-05-14T09:24:29.691Z,60.27
2018-05-14T09:27:33.763Z,59.65
2018-05-14T09:30:37.025Z,61.67
2018-05-14T09:33:40.329Z,57.58
2018-05-14T09:36:43.602Z,57.57
2018-05-14T09:39:46.880Z,58.09
2018-05-14T09:42:50.131Z,58.57
2018-05-14T09:45:54.260Z,60.41
2018-05-14T09:48:57.553Z,60.24
2018-05-14T09:52:00.879Z,62.70
2018-05-14T09:55:04.179Z,61.98
2018-05-14T09:58:07.474Z,60.49
2018-05-14T10:01:10.742Z,60.19
2018-05-14T10:04:14.008Z,59.93
2018-05-14T10:07:17.268Z,60.24
2018-05-14T10:10:21.395Z,59.15
2018-05-14T10:13:24.682Z,59.46
2018-05-14T10:16:28.882Z,59.17
2018-05-14T10:19:32.296Z,59.60
2018-05-14T10:22:36.474Z,60.46
2018-05-14T10:25:40.529Z,58.73
2018-05-14T10:28:43.798Z,56.96
2018-05-14T10:31:47.868Z,59.23
2018-05-14T10:34:51.322Z,60.67
2018-05-14T10:37:54.725Z,58.15
2018-05-14T10:40:59.057Z,57.79
2018-05-14T10:44:02.312Z,56.04
2018-05-14T10:47:05.694Z,57.93
2018-05-14T10:50:08.957Z,56.33
2018-05-14T10:53:12.978Z,55.00
2018-05-14T10:56:16.382Z,55.92
2018-05-14T10:59:19.736Z,56.00
2018-05-14T11:02:23.831Z,54.52
2018-05-14T11:05:27.179Z,54.59
2018-05-14T11:08:30.485Z,54.83
2018-05-14T11:11:34.539Z,57.36
2018-05-14T11:14:38.033Z,56.26
2018-05-14T11:17:41.312Z,55.87
2018-05-14T11:20:45.431Z,54.63
2018-05-14T11:23:49.461Z,55.17
2018-05-14T11:26:53.582Z,55.47
2018-05-14T11:29:57.716Z,56.72
2018-05-14T11:33:00.982Z,55.45
2018-05-14T11:36:04.282Z,54.90
2018-05-14T11:39:07.582Z,55.93
2018-05-14T11:42:10.890Z,56.99
2018-05-14T11:45:15.041Z,54.98
2018-05-14T11:48:19.152Z,54.61
2018-05-14T11:51:22.536Z,51.64
2018-05-14T11:54:25.814Z,50.21
2018-05-14T11:57:29.081Z,52.61
2018-05-14T12:00:32.346Z,55.25
2018-05-14T12:03:35.606Z,57.23
2018-05-14T12:06:38.868Z,55.57
2018-05-14T12:09:43.057Z,56.65
2018-05-14T12:12:46.473Z,57.29
2018-05-14T12:15:49.742Z,58.37
2018-05-14T12:18:53.008Z,57.99
2018-05-14T12:21:56.334Z,55.83
2018-05-14T12:24:59.636Z,54.98
2018-05-14T12:28:02.913Z,56.27
2018-05-14T12:31:06.956Z,54.60
2018-05-14T12:34:10.309Z,54.80
2018-05-14T12:37:14.446Z,54.28
2018-05-14T12:40:18.553Z,54.22
2018-05-14T12:43:22.025Z,53.30
2018-05-14T12:46:26.613Z,52.42
2018-05-14T12:49:30.678Z,51.78
2018-05-14T12:52:33.965Z,52.42
2018-05-14T12:55:37.494Z,51.85
2018-05-14T12:58:40.768Z,52.86
2018-05-14T13:01:44.070Z,53.96
2018-05-14T13:04:47.404Z,51.10
2018-05-14T13:07:50.735Z,49.24
2018-05-14T13:10:54.288Z,52.23
2018-05-14T13:13:57.648Z,52.60
2018-05-14T13:17:00.983Z,53.25
2018-05-14T13:20:04.297Z,54.34
2018-05-14T13:23:07.803Z,56.64
2018-05-14T13:26:11.194Z,57.01
2018-05-14T13:29:15.314Z,55.91
2018-05-14T13:32:46.132Z,53.84
2018-05-14T13:35:53.558Z,55.48
2018-05-14T13:38:57.653Z,55.73
2018-05-14T13:42:01.794Z,55.99
2018-05-14T13:45:05.835Z,54.13
2018-05-14T13:48:09.314Z,55.49
2018-05-14T13:51:13.515Z,55.55
2018-05-14T13:54:16.817Z,55.82
2018-05-14T13:57:20.176Z,56.39
2018-05-14T14:00:23.552Z,54.47
2018-05-14T14:03:27.728Z,54.44
2018-05-14T14:06:31.071Z,52.38
2018-05-14T14:09:35.931Z,54.49
2018-05-14T14:12:39.519Z,52.63
2018-05-14T14:15:42.827Z,53.00
2018-05-14T14:18:46.845Z,52.74
2018-05-14T14:21:50.908Z,49.79
2018-05-14T14:24:54.341Z,48.55
2018-05-14T14:27:57.674Z,45.86
2018-05-14T14:31:01.730Z,43.90
2018-05-14T14:34:05.057Z,44.08
2018-05-14T14:37:08.395Z,43.25
2018-05-14T14:40:12.469Z,43.27
2018-05-14T14:43:15.771Z,42.58
2018-05-14T14:46:19.078Z,40.05
2018-05-14T14:49:23.159Z,41.43
2018-05-14T14:52:28.025Z,41.47
2018-05-14T14:55:31.272Z,42.41
2018-05-14T14:58:35.324Z,43.60
2018-05-14T15:01:38.625Z,43.27
2018-05-14T15:04:41.958Z,43.62
2018-05-14T15:07:45.232Z,46.82
2018-05-14T15:10:48.514Z,49.94
2018-05-14T15:13:52.575Z,55.52
2018-05-14T15:16:56.269Z,60.62
2018-05-14T15:19:59.619Z,65.23
2018-05-14T15:23:02.882Z,69.79
2018-05-14T15:26:06.517Z,72.65
2018-05-14T15:29:11.378Z,70.28
2018-05-14T15:32:14.714Z,69.08
2018-05-14T15:35:18.203Z,70.66
2018-05-14T15:38:21.514Z,69.99
2018-05-14T15:41:24.801Z,71.46
2018-05-14T15:44:28.154Z,71.43
2018-05-14T15:47:31.418Z,71.16
2018-05-14T15:50:34.754Z,68.43
2018-05-14T15:53:38.050Z,64.30
2018-05-14T15:56:41.389Z,66.27
2018-05-14T15:59:45.442Z,63.40
2018-05-14T16:02:48.710Z,64.37
2018-05-14T16:05:52.753Z,63.67
2018-05-14T16:08:56.031Z,64.25
2018-05-14T16:12:00.054Z,64.08
2018-05-14T16:15:04.676Z,63.76
2018-05-14T16:18:08.168Z,64.19
2018-05-14T16:21:11.465Z,64.71
2018-05-14T16:24:14.729Z,62.96
2018-05-14T16:27:18.099Z,62.54
2018-05-14T16:30:22.114Z,62.46
2018-05-14T16:33:26.165Z,62.17
2018-05-14T16:36:29.426Z,60.98
2018-05-14T16:39:32.759Z,62.51
2018-05-14T16:42:36.819Z,62.55
2018-05-14T16:45:40.074Z,62.05
2018-05-14T16:48:43.343Z,62.35
2018-05-14T16:51:46.698Z,61.33
2018-05-14T16:54:50.735Z,60.84
2018-05-14T16:57:54.077Z,59.21
2018-05-14T17:00:57.281Z,60.40
2018-05-14T17:04:00.542Z,61.72
2018-05-14T17:07:04.573Z,61.27
2018-05-14T17:10:08.658Z,59.75
2018-05-14T17:13:13.465Z,59.28
2018-05-14T17:16:16.752Z,59.46
2018-05-14T17:19:20.773Z,59.56
2018-05-14T17:22:24.805Z,59.62
2018-05-14T17:25:29.943Z,60.51
2018-05-14T17:28:33.982Z,61.03
2018-05-14T17:31:37.251Z,60.59
2018-05-14T17:34:41.302Z,60.60
2018-05-14T17:37:44.571Z,59.63
2018-05-14T17:40:47.889Z,61.87
2018-05-14T17:43:51.374Z,60.60
2018-05-14T17:46:55.447Z,60.02
2018-05-14T17:49:58.741Z,62.31
2018-05-14T17:53:02.055Z,62.36
2018-05-14T17:56:05.323Z,63.85
2018-05-14T17:59:08.626Z,64.41
2018-05-14T18:02:11.900Z,64.08
2018-05-14T18:05:15.264Z,64.82
2018-05-14T18:08:18.493Z,65.92
2018-05-14T18:11:21.749Z,65.90
2018-05-14T18:14:25.017Z,66.39
2018-05-14T18:17:28.480Z,67.44
2018-05-14T18:20:32.426Z,67.14
2018-05-14T18:23:41.144Z,67.51
2018-05-14T18:26:46.194Z,67.32
2018-05-14T18:29:55.267Z,68.72
2018-05-14T18:33:02.393Z,69.02
2018-05-14T18:36:05.652Z,69.08
2018-05-14T18:39:08.975Z,66.46
2018-05-14T18:42:13.060Z,67.39
2018-05-14T18:45:16.336Z,65.87
2018-05-14T18:48:20.385Z,70.21
2018-05-14T18:51:23.713Z,68.20
2018-05-14T18:54:27.015Z,68.26
2018-05-14T18:57:30.281Z,69.10
2018-05-14T19:00:33.671Z,68.99
2018-05-14T19:03:37.346Z,69.91
2018-05-14T19:06:40.615Z,71.07
2018-05-14T19:09:43.873Z,70.33
2018-05-14T19:12:47.961Z,69.86
2018-05-14T19:15:56.876Z,71.03
2018-05-14T19:19:00.140Z,69.99
2018-05-14T19:22:03.400Z,69.71
2018-05-14T19:25:06.654Z,70.88
2018-05-14T19:28:15.659Z,69.73
2018-05-14T19:31:18.936Z,70.14
2018-05-14T19:34:27.734Z,69.03
2018-05-14T19:37:30.990Z,70.60
2018-05-14T19:40:40.493Z,71.28
2018-05-14T19:43:44.511Z,71.51
2018-05-14T19:46:48.928Z,72.76
2018-05-14T19:49:52.234Z,74.16
2018-05-14T19:52:55.684Z,74.36
2018-05-14T19:55:58.941Z,75.49
2018-05-14T19:59:02.204Z,75.19
2018-05-14T20:02:05.503Z,75.79
2018-05-14T20:05:09.943Z,75.51
2018-05-14T20:08:13.286Z,75.93
2018-05-14T20:11:16.552Z,76.10
2018-05-14T20:14:19.808Z,76.17
2018-05-14T20:17:23.838Z,77.09
2018-05-14T20:20:27.157Z,76.67
2018-05-14T20:23:31.894Z,76.76
2018-05-14T20:26:35.267Z,76.99
2018-05-14T20:29:38.905Z,77.69
2018-05-14T20:32:46.128Z,77.50
2018-05-14T20:35:49.857Z,77.22
2018-05-14T20:38:54.001Z,77.05
2018-05-14T20:41:58.325Z,78.38
2018-05-14T20:45:02.645Z,78.05
2018-05-14T20:48:05.911Z,78.18
2018-05-14T20:51:09.848Z,78.75
2018-05-14T20:54:13.377Z,78.54
2018-05-14T20:57:16.692Z,78.47
2018-05-14T21:00:21.676Z,78.76
2018-05-14T21:03:24.978Z,78.63
2018-05-14T21:06:28.258Z,78.93
2018-05-14T21:09:31.509Z,78.54
2018-05-14T21:12:37.361Z,78.95
2018-05-14T21:15:43.741Z,79.51
2018-05-14T21:18:54.780Z,79.71
2018-05-14T21:22:01.224Z,79.39
2018-05-14T21:25:05.173Z,78.60
2018-05-14T21:28:09.200Z,79.07
2018-05-14T21:31:12.548Z,78.47
2018-05-14T21:34:16.611Z,78.42
2018-05-14T21:37:20.713Z,78.25
2018-05-14T21:40:24.038Z,78.84
2018-05-14T21:43:27.502Z,76.96
2018-05-14T21:46:30.762Z,76.13
2018-05-14T21:49:34.742Z,76.26
2018-05-14T21:52:38.785Z,76.45
2018-05-14T21:55:42.267Z,76.66
2018-05-14T21:58:45.529Z,78.07
2018-05-14T22:01:48.803Z,77.61
2018-05-14T22:04:52.067Z,77.87
2018-05-14T22:07:55.327Z,78.05
2018-05-14T22:10:58.586Z,78.17
2018-05-14T22:14:01.834Z,78.27
2018-05-14T22:17:05.089Z,78.76
2018-05-14T22:20:09.119Z,78.77
2018-05-14T22:23:13.841Z,78.44
2018-05-14T22:26:17.880Z,78.84
2018-05-14T22:29:21.899Z,78.53
2018-05-14T22:32:25.361Z,78.52
2018-05-14T22:35:28.638Z,78.48
2018-05-14T22:38:32.676Z,79.26
2018-05-14T22:41:35.938Z,79.17
2018-05-14T22:44:39.965Z,78.78
2018-05-14T22:47:43.255Z,78.60
2018-05-14T22:50:47.756Z,79.31
2018-05-14T22:53:51.025Z,79.40
2018-05-14T22:56:55.048Z,79.06
2018-05-14T22:59:59.148Z,79.38
2018-05-14T23:03:02.407Z,79.81
2018-05-14T23:06:05.669Z,79.78
2018-05-14T23:09:08.942Z,79.90
2018-05-14T23:12:12.223Z,79.73
2018-05-14T23:15:15.493Z,80.32
2018-05-14T23:18:18.753Z,80.42
2018-05-14T23:21:22.785Z,80.45
2018-05-14T23:24:26.040Z,80.33
2018-05-14T23:27:29.312Z,80.01
2018-05-14T23:30:32.570Z,80.23
2018-05-14T23:33:35.832Z,81.08
2018-05-14T23:36:39.093Z,80.71
2018-05-14T23:39:42.357Z,80.46
2018-05-14T23:42:46.385Z,80.81
2018-05-14T23:45:49.660Z,80.62
2018-05-14T23:48:53.841Z,80.94
2018-05-14T23:51:57.106Z,81.24
2018-05-14T23:55:00.350Z,81.11
2018-05-14T23:58:03.641Z,80.87
